Ithaca, Nebraska
Current Conditions -  °F | °C
As of 6:55 PM on Wednesday 22 Oct 2014 (Local Time) from KAHQ Reporting Station
Heavy Rain Heavy Rain  
Wind Chill: 63°   Ceiling: 5000
Heat Index: 63°   Visibility: 5mi
Dew Point: 60°   Wind: 7mph
Humidity: 90%   Direction: 290°WNW
Pressure: 30.05"   Gusts: NA
Location:  41.16°N, 96.54°W
Report Text: KAHQ 222355Z AUTO 29006KT 5SM +RA SCT040 SCT048 OVC050 17/16 A3005 RMK AO2 P0024 60028 T01710155 10274 20171
Loading
Personal Weather Stations






























Interactive Weather Map
Tropical Storm Tracking
New forecast layout! Learn more

10-Day Weather Forecast

Advertisements
Track Severe Weather on mobile